IBE14N SGAS-SBBR
Flight info
| Callsign | IBE14N |
|---|---|
| Flight time | 1h 54m |
| Altitude | 37000 |
| Route | NILKI DCT SOSMO UM403 EGONI |
| Aircraft | A320/M-SDE3FGHIRWY/LB1 |
Departure
| Time | 2026-04-21 07:27 |
|---|---|
| Airport | Silvio Pettirossi International Airport (SGAS) |
Arrival
| Time | 2026-04-21 09:22 |
|---|---|
| Airport | Presidente Juscelino Kubitschek International Airport (SBBR) |
| Time | Latitude | Longitude | Altitude | Speed | Heading |
|---|---|---|---|---|---|
| 2026-04-21 07:15 | -25.24236 | -57.51550 | 282 ft | 0 kts | 125° |
| 2026-04-21 07:21 | -25.24235 | -57.51551 | 281 ft | 1 kts | 125° |
| 2026-04-21 07:22 | -25.24227 | -57.51564 | 282 ft | 3 kts | 122° |
| 2026-04-21 07:22 | -25.24216 | -57.51583 | 288 ft | 3 kts | 119° |
| 2026-04-21 07:22 | -25.24206 | -57.51603 | 285 ft | 3 kts | 119° |
| 2026-04-21 07:22 | -25.24196 | -57.51622 | 280 ft | 3 kts | 127° |
| 2026-04-21 07:23 | -25.24195 | -57.51623 | 280 ft | 0 kts | 128° |
| 2026-04-21 07:25 | -25.24211 | -57.51620 | 282 ft | 7 kts | 182° |
| 2026-04-21 07:25 | -25.24254 | -57.51640 | 284 ft | 6 kts | 216° |
| 2026-04-21 07:25 | -25.24303 | -57.51715 | 282 ft | 16 kts | 273° |
| 2026-04-21 07:25 | -25.24287 | -57.51821 | 283 ft | 15 kts | 283° |
| 2026-04-21 07:26 | -25.24253 | -57.51965 | 287 ft | 11 kts | 313° |
| 2026-04-21 07:26 | -25.24193 | -57.51972 | 284 ft | 3 kts | 22° |
| 2026-04-21 07:26 | -25.24180 | -57.51969 | 283 ft | 0 kts | 10° |
| 2026-04-21 07:27 | -25.23968 | -57.51914 | 279 ft | 69 kts | 15° |
| 2026-04-21 07:27 | -25.23294 | -57.51747 | 268 ft | 128 kts | 12° |
| 2026-04-21 07:27 | -25.22276 | -57.51495 | 371 ft | 165 kts | 14° |
| 2026-04-21 07:27 | -25.21123 | -57.51175 | 917 ft | 173 kts | 13° |
| 2026-04-21 07:28 | -25.19957 | -57.50892 | 1684 ft | 169 kts | 12° |
| 2026-04-21 07:28 | -25.18790 | -57.50617 | 2300 ft | 177 kts | 11° |
| 2026-04-21 07:28 | -25.17542 | -57.50324 | 2731 ft | 190 kts | 11° |
| 2026-04-21 07:28 | -25.16193 | -57.50006 | 3132 ft | 206 kts | 10° |
| 2026-04-21 07:29 | -25.14735 | -57.49660 | 3540 ft | 224 kts | 10° |
| 2026-04-21 07:29 | -25.13177 | -57.49163 | 4061 ft | 242 kts | 15° |
| 2026-04-21 07:29 | -25.11530 | -57.48564 | 4712 ft | 254 kts | 16° |
| 2026-04-21 07:29 | -25.09838 | -57.47932 | 5529 ft | 258 kts | 15° |
| 2026-04-21 07:30 | -25.08125 | -57.47286 | 6360 ft | 262 kts | 15° |
| 2026-04-21 07:30 | -25.06381 | -57.46629 | 7117 ft | 267 kts | 15° |
| 2026-04-21 07:30 | -25.04604 | -57.45963 | 7897 ft | 272 kts | 15° |
| 2026-04-21 07:30 | -25.02801 | -57.45289 | 8688 ft | 276 kts | 15° |
| 2026-04-21 07:31 | -25.00969 | -57.44607 | 9478 ft | 280 kts | 15° |
| 2026-04-21 07:31 | -24.99106 | -57.43915 | 10190 ft | 286 kts | 15° |
| 2026-04-21 07:31 | -24.97164 | -57.43198 | 10598 ft | 303 kts | 15° |
| 2026-04-21 07:31 | -24.95116 | -57.42424 | 10973 ft | 320 kts | 19° |
| 2026-04-21 07:32 | -24.93122 | -57.41203 | 11472 ft | 335 kts | 34° |
| 2026-04-21 07:32 | -24.91415 | -57.39408 | 12140 ft | 344 kts | 48° |
| 2026-04-21 07:32 | -24.90124 | -57.37159 | 12821 ft | 352 kts | 59° |
| 2026-04-21 07:32 | -24.88980 | -57.34792 | 13477 ft | 357 kts | 59° |
| 2026-04-21 07:33 | -24.87807 | -57.32366 | 14084 ft | 361 kts | 59° |
| 2026-04-21 07:33 | -24.86619 | -57.29913 | 14658 ft | 365 kts | 59° |
| 2026-04-21 07:33 | -24.85414 | -57.27430 | 15238 ft | 369 kts | 59° |
| 2026-04-21 07:33 | -24.84197 | -57.24929 | 15813 ft | 373 kts | 59° |
| 2026-04-21 07:34 | -24.82965 | -57.22398 | 16380 ft | 377 kts | 60° |
| 2026-04-21 07:34 | -24.81719 | -57.19843 | 16945 ft | 381 kts | 60° |
| 2026-04-21 07:34 | -24.80460 | -57.17262 | 17512 ft | 385 kts | 60° |
| 2026-04-21 07:34 | -24.79189 | -57.14653 | 18057 ft | 388 kts | 60° |
| 2026-04-21 07:35 | -24.77905 | -57.12025 | 18556 ft | 392 kts | 60° |
| 2026-04-21 07:35 | -24.76607 | -57.09369 | 19034 ft | 396 kts | 60° |
| 2026-04-21 07:35 | -24.75300 | -57.06695 | 19514 ft | 399 kts | 60° |
| 2026-04-21 07:35 | -24.73981 | -57.03993 | 19994 ft | 402 kts | 60° |
| 2026-04-21 07:36 | -24.72651 | -57.01268 | 20482 ft | 406 kts | 60° |
| 2026-04-21 07:36 | -24.71311 | -56.98523 | 20959 ft | 409 kts | 60° |
| 2026-04-21 07:36 | -24.69960 | -56.95759 | 21436 ft | 413 kts | 60° |
| 2026-04-21 07:36 | -24.68605 | -56.92992 | 21912 ft | 416 kts | 60° |
| 2026-04-21 07:37 | -24.67238 | -56.90202 | 22375 ft | 419 kts | 60° |
| 2026-04-21 07:37 | -24.65737 | -56.87426 | 22863 ft | 422 kts | 53° |
| 2026-04-21 07:37 | -24.63846 | -56.84967 | 23333 ft | 423 kts | 43° |
| 2026-04-21 07:37 | -24.61756 | -56.82680 | 23722 ft | 426 kts | 43° |
| 2026-04-21 07:38 | -24.59647 | -56.80375 | 24088 ft | 430 kts | 43° |
| 2026-04-21 07:38 | -24.57521 | -56.78046 | 24453 ft | 433 kts | 43° |
| 2026-04-21 07:38 | -24.55383 | -56.75701 | 24815 ft | 436 kts | 43° |
| 2026-04-21 07:38 | -24.53260 | -56.73373 | 25161 ft | 439 kts | 43° |
| 2026-04-21 07:39 | -24.51093 | -56.70994 | 25511 ft | 442 kts | 43° |
| 2026-04-21 07:39 | -24.48912 | -56.68598 | 25850 ft | 445 kts | 43° |
| 2026-04-21 07:39 | -24.46716 | -56.66189 | 26188 ft | 448 kts | 43° |
| 2026-04-21 07:39 | -24.44504 | -56.63765 | 26521 ft | 451 kts | 43° |
| 2026-04-21 07:40 | -24.42276 | -56.61325 | 26854 ft | 454 kts | 43° |
| 2026-04-21 07:40 | -24.40034 | -56.58873 | 27165 ft | 457 kts | 43° |
| 2026-04-21 07:40 | -24.37771 | -56.56403 | 27480 ft | 460 kts | 43° |
| 2026-04-21 07:40 | -24.35495 | -56.53927 | 27791 ft | 463 kts | 42° |
| 2026-04-21 07:41 | -24.33207 | -56.51436 | 28103 ft | 465 kts | 42° |
| 2026-04-21 07:41 | -24.30903 | -56.48924 | 28405 ft | 468 kts | 42° |
| 2026-04-21 07:41 | -24.28586 | -56.46399 | 28703 ft | 471 kts | 43° |
| 2026-04-21 07:41 | -24.26261 | -56.43860 | 28996 ft | 473 kts | 43° |
| 2026-04-21 07:42 | -24.23919 | -56.41303 | 29283 ft | 476 kts | 42° |
| 2026-04-21 07:42 | -24.21567 | -56.38742 | 29565 ft | 478 kts | 42° |
| 2026-04-21 07:42 | -24.19201 | -56.36170 | 29851 ft | 481 kts | 42° |
| 2026-04-21 07:42 | -24.16821 | -56.33584 | 30100 ft | 483 kts | 42° |
| 2026-04-21 07:43 | -24.14423 | -56.30985 | 30324 ft | 485 kts | 42° |
| 2026-04-21 07:43 | -24.12022 | -56.28376 | 30547 ft | 488 kts | 42° |
| 2026-04-21 07:43 | -24.09612 | -56.25753 | 30773 ft | 490 kts | 43° |
| 2026-04-21 07:43 | -24.07218 | -56.23153 | 30984 ft | 492 kts | 43° |
| 2026-04-21 07:44 | -24.04788 | -56.20517 | 31195 ft | 494 kts | 43° |
| 2026-04-21 07:44 | -24.02343 | -56.17871 | 31409 ft | 495 kts | 43° |
| 2026-04-21 07:44 | -23.99888 | -56.15216 | 31702 ft | 495 kts | 43° |
| 2026-04-21 07:44 | -23.97444 | -56.12573 | 32013 ft | 494 kts | 43° |
| 2026-04-21 07:45 | -23.94999 | -56.09928 | 32305 ft | 494 kts | 43° |
| 2026-04-21 07:45 | -23.92561 | -56.07288 | 32601 ft | 494 kts | 43° |
| 2026-04-21 07:45 | -23.90116 | -56.04640 | 32904 ft | 494 kts | 43° |
| 2026-04-21 07:45 | -23.87679 | -56.01999 | 33202 ft | 494 kts | 43° |
| 2026-04-21 07:46 | -23.85237 | -55.99360 | 33498 ft | 494 kts | 43° |
| 2026-04-21 07:46 | -23.82793 | -55.96722 | 33800 ft | 494 kts | 43° |
| 2026-04-21 07:46 | -23.80353 | -55.94088 | 34082 ft | 493 kts | 43° |
| 2026-04-21 07:46 | -23.77910 | -55.91461 | 34357 ft | 493 kts | 43° |
| 2026-04-21 07:47 | -23.75470 | -55.88837 | 34620 ft | 492 kts | 43° |
| 2026-04-21 07:47 | -23.73031 | -55.86216 | 34886 ft | 491 kts | 43° |
| 2026-04-21 07:47 | -23.70600 | -55.83597 | 35145 ft | 491 kts | 43° |
| 2026-04-21 07:47 | -23.68172 | -55.80985 | 35404 ft | 490 kts | 43° |
| 2026-04-21 07:48 | -23.65743 | -55.78379 | 35660 ft | 489 kts | 43° |
| 2026-04-21 07:48 | -23.63321 | -55.75786 | 35898 ft | 488 kts | 43° |
| 2026-04-21 07:48 | -23.60897 | -55.73188 | 36143 ft | 488 kts | 43° |
| 2026-04-21 07:48 | -23.58488 | -55.70594 | 36382 ft | 487 kts | 43° |
| 2026-04-21 07:49 | -23.56077 | -55.68006 | 36608 ft | 486 kts | 43° |
| 2026-04-21 07:49 | -23.53661 | -55.65423 | 36826 ft | 486 kts | 43° |
| 2026-04-21 07:49 | -23.51257 | -55.62844 | 36930 ft | 484 kts | 43° |
| 2026-04-21 07:49 | -23.48903 | -55.60308 | 36951 ft | 482 kts | 43° |
| 2026-04-21 07:50 | -23.44132 | -55.55190 | 36951 ft | 481 kts | 43° |
| 2026-04-21 07:50 | -23.39349 | -55.50088 | 36955 ft | 481 kts | 43° |
| 2026-04-21 07:51 | -23.34565 | -55.44990 | 36956 ft | 482 kts | 43° |
| 2026-04-21 07:51 | -23.29779 | -55.39877 | 36962 ft | 482 kts | 43° |
| 2026-04-21 07:52 | -23.24995 | -55.34782 | 36963 ft | 481 kts | 43° |
| 2026-04-21 07:52 | -23.20213 | -55.29681 | 36963 ft | 481 kts | 43° |
| 2026-04-21 07:53 | -23.15432 | -55.24594 | 36964 ft | 481 kts | 43° |
| 2026-04-21 07:53 | -23.10642 | -55.19508 | 36968 ft | 482 kts | 43° |
| 2026-04-21 07:54 | -23.05856 | -55.14431 | 36975 ft | 481 kts | 43° |
| 2026-04-21 07:54 | -23.01067 | -55.09353 | 36977 ft | 481 kts | 43° |
| 2026-04-21 07:55 | -22.96309 | -55.04319 | 36973 ft | 481 kts | 43° |
| 2026-04-21 07:55 | -22.91519 | -54.99254 | 36974 ft | 481 kts | 43° |
| 2026-04-21 07:56 | -22.86727 | -54.94184 | 36976 ft | 481 kts | 43° |
| 2026-04-21 07:56 | -22.81938 | -54.89114 | 36976 ft | 481 kts | 43° |
| 2026-04-21 07:57 | -22.77144 | -54.84050 | 36971 ft | 481 kts | 43° |
| 2026-04-21 07:57 | -22.72339 | -54.78995 | 36971 ft | 481 kts | 43° |
| 2026-04-21 07:58 | -22.67529 | -54.73938 | 36973 ft | 482 kts | 43° |
| 2026-04-21 07:58 | -22.62754 | -54.68924 | 36979 ft | 482 kts | 43° |
| 2026-04-21 07:59 | -22.57911 | -54.63830 | 36983 ft | 481 kts | 43° |
| 2026-04-21 07:59 | -22.53139 | -54.58821 | 36981 ft | 481 kts | 43° |
| 2026-04-21 08:00 | -22.48327 | -54.53792 | 36979 ft | 480 kts | 43° |
| 2026-04-21 08:00 | -22.43518 | -54.48780 | 36981 ft | 480 kts | 43° |
| 2026-04-21 08:01 | -22.38717 | -54.43779 | 36978 ft | 480 kts | 43° |
| 2026-04-21 08:02 | -22.31509 | -54.36291 | 36978 ft | 479 kts | 43° |
| 2026-04-21 08:02 | -22.27518 | -54.32140 | 36975 ft | 479 kts | 43° |
| 2026-04-21 08:03 | -22.22715 | -54.27153 | 36981 ft | 479 kts | 43° |
| 2026-04-21 08:03 | -22.17119 | -54.21347 | 36982 ft | 479 kts | 43° |
| 2026-04-21 08:04 | -22.13095 | -54.17177 | 36986 ft | 479 kts | 43° |
| 2026-04-21 08:04 | -22.08292 | -54.12203 | 36989 ft | 478 kts | 43° |
| 2026-04-21 08:05 | -22.03524 | -54.07279 | 36991 ft | 478 kts | 43° |
| 2026-04-21 08:05 | -21.98723 | -54.02328 | 36985 ft | 478 kts | 43° |
| 2026-04-21 08:06 | -21.93925 | -53.97386 | 36987 ft | 477 kts | 43° |
| 2026-04-21 08:06 | -21.89141 | -53.92448 | 36989 ft | 476 kts | 43° |
| 2026-04-21 08:07 | -21.84362 | -53.87515 | 36985 ft | 476 kts | 43° |
| 2026-04-21 08:07 | -21.79581 | -53.82595 | 36989 ft | 475 kts | 43° |
| 2026-04-21 08:08 | -21.74800 | -53.77688 | 36991 ft | 475 kts | 43° |
| 2026-04-21 08:08 | -21.70030 | -53.72781 | 36989 ft | 474 kts | 43° |
| 2026-04-21 08:09 | -21.65260 | -53.67886 | 36990 ft | 474 kts | 43° |
| 2026-04-21 08:09 | -21.60483 | -53.62991 | 36988 ft | 474 kts | 43° |
| 2026-04-21 08:10 | -21.55714 | -53.58106 | 36988 ft | 474 kts | 43° |
| 2026-04-21 08:10 | -21.50944 | -53.53229 | 36986 ft | 474 kts | 43° |
| 2026-04-21 08:11 | -21.46170 | -53.48353 | 36984 ft | 474 kts | 43° |
| 2026-04-21 08:11 | -21.41431 | -53.43444 | 36989 ft | 474 kts | 44° |
| 2026-04-21 08:12 | -21.36751 | -53.38464 | 36990 ft | 474 kts | 44° |
| 2026-04-21 08:12 | -21.32108 | -53.33521 | 36986 ft | 473 kts | 44° |
| 2026-04-21 08:13 | -21.27411 | -53.28568 | 36979 ft | 473 kts | 44° |
| 2026-04-21 08:13 | -21.22707 | -53.23627 | 36981 ft | 474 kts | 44° |
| 2026-04-21 08:14 | -21.18005 | -53.18678 | 36986 ft | 474 kts | 44° |
| 2026-04-21 08:14 | -21.13311 | -53.13722 | 36990 ft | 474 kts | 44° |
| 2026-04-21 08:15 | -21.08598 | -53.08781 | 36995 ft | 474 kts | 44° |
| 2026-04-21 08:15 | -21.03826 | -53.03898 | 36999 ft | 474 kts | 43° |
| 2026-04-21 08:16 | -20.98995 | -52.99094 | 36995 ft | 474 kts | 42° |
| 2026-04-21 08:16 | -20.94163 | -52.94295 | 36993 ft | 474 kts | 43° |
| 2026-04-21 08:17 | -20.89349 | -52.89467 | 36993 ft | 475 kts | 43° |
| 2026-04-21 08:17 | -20.84540 | -52.84640 | 36999 ft | 474 kts | 43° |
| 2026-04-21 08:18 | -20.79749 | -52.79781 | 36994 ft | 474 kts | 44° |
| 2026-04-21 08:18 | -20.74996 | -52.74890 | 36998 ft | 475 kts | 44° |
| 2026-04-21 08:19 | -20.70236 | -52.70005 | 37002 ft | 475 kts | 44° |
| 2026-04-21 08:19 | -20.65459 | -52.65138 | 36997 ft | 475 kts | 43° |
| 2026-04-21 08:20 | -20.60670 | -52.60284 | 36999 ft | 475 kts | 43° |
| 2026-04-21 08:20 | -20.55890 | -52.55427 | 37005 ft | 474 kts | 44° |
| 2026-04-21 08:21 | -20.51115 | -52.50567 | 36997 ft | 474 kts | 44° |
| 2026-04-21 08:21 | -20.46378 | -52.45747 | 36998 ft | 474 kts | 44° |
| 2026-04-21 08:22 | -20.41607 | -52.40899 | 37008 ft | 474 kts | 44° |
| 2026-04-21 08:22 | -20.36836 | -52.36056 | 37005 ft | 474 kts | 44° |
| 2026-04-21 08:23 | -20.32063 | -52.31223 | 37002 ft | 473 kts | 44° |
| 2026-04-21 08:23 | -20.27292 | -52.26389 | 37006 ft | 473 kts | 44° |
| 2026-04-21 08:24 | -20.22521 | -52.21556 | 37015 ft | 473 kts | 44° |
| 2026-04-21 08:24 | -20.17750 | -52.16728 | 37008 ft | 473 kts | 44° |
| 2026-04-21 08:25 | -20.12978 | -52.11909 | 37020 ft | 473 kts | 44° |
| 2026-04-21 08:25 | -20.08203 | -52.07099 | 37007 ft | 473 kts | 44° |
| 2026-04-21 08:26 | -20.03433 | -52.02292 | 37022 ft | 472 kts | 44° |
| 2026-04-21 08:26 | -19.98662 | -51.97483 | 37022 ft | 472 kts | 44° |
| 2026-04-21 08:27 | -19.93927 | -51.92712 | 37026 ft | 472 kts | 44° |
| 2026-04-21 08:27 | -19.89162 | -51.87912 | 37026 ft | 472 kts | 44° |
| 2026-04-21 08:28 | -19.84399 | -51.83113 | 37012 ft | 472 kts | 45° |
| 2026-04-21 08:28 | -19.79644 | -51.78312 | 37018 ft | 471 kts | 45° |
| 2026-04-21 08:29 | -19.74894 | -51.73515 | 37022 ft | 471 kts | 45° |
| 2026-04-21 08:29 | -19.70142 | -51.68721 | 37025 ft | 471 kts | 45° |
| 2026-04-21 08:30 | -19.65386 | -51.63941 | 37011 ft | 471 kts | 44° |
| 2026-04-21 08:30 | -19.60610 | -51.59182 | 37030 ft | 471 kts | 44° |
| 2026-04-21 08:31 | -19.55830 | -51.54429 | 37024 ft | 471 kts | 44° |
| 2026-04-21 08:31 | -19.51051 | -51.49675 | 37020 ft | 471 kts | 44° |
| 2026-04-21 08:32 | -19.46279 | -51.44927 | 37003 ft | 471 kts | 44° |
| 2026-04-21 08:32 | -19.41528 | -51.40212 | 37016 ft | 471 kts | 44° |
| 2026-04-21 08:33 | -19.36747 | -51.35468 | 36999 ft | 471 kts | 44° |
| 2026-04-21 08:33 | -19.31961 | -51.30726 | 37024 ft | 471 kts | 44° |
| 2026-04-21 08:34 | -19.27178 | -51.25987 | 37016 ft | 471 kts | 44° |
| 2026-04-21 08:34 | -19.22398 | -51.21249 | 37014 ft | 471 kts | 44° |
| 2026-04-21 08:35 | -19.17615 | -51.16518 | 37004 ft | 471 kts | 44° |
| 2026-04-21 08:35 | -19.12833 | -51.11786 | 37012 ft | 471 kts | 44° |
| 2026-04-21 08:36 | -19.08048 | -51.07059 | 36999 ft | 471 kts | 44° |
| 2026-04-21 08:36 | -19.03260 | -51.02337 | 37003 ft | 470 kts | 44° |
| 2026-04-21 08:37 | -18.98500 | -50.97651 | 37016 ft | 470 kts | 44° |
| 2026-04-21 08:37 | -18.93717 | -50.92940 | 37017 ft | 470 kts | 44° |
| 2026-04-21 08:38 | -18.88935 | -50.88238 | 37010 ft | 470 kts | 44° |
| 2026-04-21 08:38 | -18.84150 | -50.83542 | 37010 ft | 470 kts | 44° |
| 2026-04-21 08:39 | -18.79319 | -50.78893 | 37016 ft | 469 kts | 43° |
| 2026-04-21 08:39 | -18.74466 | -50.74284 | 37017 ft | 469 kts | 43° |
| 2026-04-21 08:40 | -18.69630 | -50.69670 | 37010 ft | 469 kts | 43° |
| 2026-04-21 08:40 | -18.64803 | -50.65045 | 36997 ft | 468 kts | 43° |
| 2026-04-21 08:41 | -18.59972 | -50.60428 | 37009 ft | 469 kts | 43° |
| 2026-04-21 08:41 | -18.55173 | -50.55843 | 37008 ft | 468 kts | 43° |
| 2026-04-21 08:42 | -18.50347 | -50.51239 | 37008 ft | 468 kts | 43° |
| 2026-04-21 08:42 | -18.45521 | -50.46633 | 37010 ft | 468 kts | 43° |
| 2026-04-21 08:43 | -18.40710 | -50.41994 | 37017 ft | 468 kts | 43° |
| 2026-04-21 08:43 | -18.35915 | -50.37366 | 37017 ft | 467 kts | 43° |
| 2026-04-21 08:44 | -18.31114 | -50.32749 | 37010 ft | 467 kts | 43° |
| 2026-04-21 08:44 | -18.26309 | -50.28137 | 37008 ft | 467 kts | 43° |
| 2026-04-21 08:45 | -18.21511 | -50.23528 | 36997 ft | 467 kts | 43° |
| 2026-04-21 08:45 | -18.16722 | -50.18919 | 37013 ft | 467 kts | 43° |
| 2026-04-21 08:46 | -18.11967 | -50.14344 | 37003 ft | 466 kts | 43° |
| 2026-04-21 08:46 | -18.07172 | -50.09749 | 37012 ft | 466 kts | 43° |
| 2026-04-21 08:47 | -18.02376 | -50.05165 | 37010 ft | 466 kts | 43° |
| 2026-04-21 08:47 | -17.97140 | -50.01175 | 37007 ft | 467 kts | 30° |
| 2026-04-21 08:48 | -17.91509 | -49.97767 | 37010 ft | 467 kts | 30° |
| 2026-04-21 08:48 | -17.85884 | -49.94363 | 36996 ft | 467 kts | 30° |
| 2026-04-21 08:49 | -17.80252 | -49.90938 | 36906 ft | 471 kts | 30° |
| 2026-04-21 08:49 | -17.77411 | -49.89214 | 36654 ft | 471 kts | 30° |
| 2026-04-21 08:49 | -17.74572 | -49.87496 | 36409 ft | 471 kts | 30° |
| 2026-04-21 08:49 | -17.71737 | -49.85786 | 36163 ft | 469 kts | 30° |
| 2026-04-21 08:50 | -17.68918 | -49.84085 | 35920 ft | 467 kts | 30° |
| 2026-04-21 08:50 | -17.66109 | -49.82392 | 35681 ft | 465 kts | 30° |
| 2026-04-21 08:50 | -17.63311 | -49.80705 | 35441 ft | 462 kts | 30° |
| 2026-04-21 08:50 | -17.60528 | -49.79024 | 35206 ft | 460 kts | 30° |
| 2026-04-21 08:51 | -17.57797 | -49.77370 | 34981 ft | 458 kts | 30° |
| 2026-04-21 08:51 | -17.55045 | -49.75704 | 34745 ft | 456 kts | 30° |
| 2026-04-21 08:51 | -17.52306 | -49.74051 | 34518 ft | 453 kts | 30° |
| 2026-04-21 08:51 | -17.49580 | -49.72405 | 34292 ft | 451 kts | 30° |
| 2026-04-21 08:52 | -17.46870 | -49.70769 | 34067 ft | 449 kts | 30° |
| 2026-04-21 08:52 | -17.44172 | -49.69142 | 33819 ft | 447 kts | 30° |
| 2026-04-21 08:52 | -17.41481 | -49.67521 | 33560 ft | 445 kts | 30° |
| 2026-04-21 08:52 | -17.38800 | -49.65908 | 33306 ft | 444 kts | 30° |
| 2026-04-21 08:53 | -17.36127 | -49.64301 | 33058 ft | 442 kts | 30° |
| 2026-04-21 08:53 | -17.33464 | -49.62700 | 32805 ft | 441 kts | 30° |
| 2026-04-21 08:53 | -17.30808 | -49.61102 | 32560 ft | 440 kts | 30° |
| 2026-04-21 08:53 | -17.28162 | -49.59507 | 32313 ft | 438 kts | 30° |
| 2026-04-21 08:54 | -17.25518 | -49.57916 | 32070 ft | 437 kts | 30° |
| 2026-04-21 08:54 | -17.22885 | -49.56333 | 31830 ft | 436 kts | 30° |
| 2026-04-21 08:54 | -17.21145 | -49.55288 | 31678 ft | 435 kts | 30° |
| 2026-04-21 08:54 | -17.17638 | -49.53182 | 31357 ft | 434 kts | 30° |
| 2026-04-21 08:55 | -17.15025 | -49.51613 | 31121 ft | 432 kts | 31° |
| 2026-04-21 08:55 | -17.13298 | -49.50576 | 30973 ft | 432 kts | 31° |
| 2026-04-21 08:55 | -17.10695 | -49.49016 | 30738 ft | 431 kts | 31° |
| 2026-04-21 08:55 | -17.08104 | -49.47461 | 30507 ft | 429 kts | 31° |
| 2026-04-21 08:56 | -17.05515 | -49.45907 | 30283 ft | 428 kts | 31° |
| 2026-04-21 08:56 | -17.02937 | -49.44359 | 30052 ft | 427 kts | 31° |
| 2026-04-21 08:56 | -17.00360 | -49.42814 | 29778 ft | 426 kts | 31° |
| 2026-04-21 08:56 | -16.97801 | -49.41281 | 29527 ft | 424 kts | 31° |
| 2026-04-21 08:57 | -16.95246 | -49.39752 | 29263 ft | 422 kts | 31° |
| 2026-04-21 08:57 | -16.92704 | -49.38230 | 29005 ft | 420 kts | 31° |
| 2026-04-21 08:57 | -16.90171 | -49.36713 | 28757 ft | 419 kts | 31° |
| 2026-04-21 08:57 | -16.87650 | -49.35202 | 28509 ft | 417 kts | 31° |
| 2026-04-21 08:58 | -16.85136 | -49.33695 | 28260 ft | 416 kts | 31° |
| 2026-04-21 08:58 | -16.82635 | -49.32198 | 28017 ft | 414 kts | 31° |
| 2026-04-21 08:58 | -16.80141 | -49.30706 | 27774 ft | 412 kts | 31° |
| 2026-04-21 08:58 | -16.77658 | -49.29220 | 27532 ft | 410 kts | 31° |
| 2026-04-21 08:59 | -16.75186 | -49.27742 | 27295 ft | 409 kts | 31° |
| 2026-04-21 08:59 | -16.72722 | -49.26272 | 26991 ft | 407 kts | 31° |
| 2026-04-21 08:59 | -16.70265 | -49.24805 | 26755 ft | 406 kts | 31° |
| 2026-04-21 08:59 | -16.67821 | -49.23342 | 26517 ft | 405 kts | 31° |
| 2026-04-21 09:00 | -16.65462 | -49.21765 | 26285 ft | 401 kts | 40° |
| 2026-04-21 09:00 | -16.63421 | -49.19801 | 26046 ft | 398 kts | 51° |
| 2026-04-21 09:00 | -16.61768 | -49.17514 | 25817 ft | 394 kts | 59° |
| 2026-04-21 09:00 | -16.60243 | -49.15151 | 25584 ft | 392 kts | 58° |
| 2026-04-21 09:01 | -16.58711 | -49.12797 | 25358 ft | 391 kts | 58° |
| 2026-04-21 09:01 | -16.57183 | -49.10459 | 25131 ft | 390 kts | 58° |
| 2026-04-21 09:01 | -16.55666 | -49.08140 | 24815 ft | 385 kts | 58° |
| 2026-04-21 09:01 | -16.54161 | -49.05831 | 24351 ft | 385 kts | 59° |
| 2026-04-21 09:02 | -16.52665 | -49.03533 | 23883 ft | 385 kts | 59° |
| 2026-04-21 09:02 | -16.51157 | -49.01213 | 23366 ft | 385 kts | 59° |
| 2026-04-21 09:02 | -16.49654 | -48.98905 | 22879 ft | 384 kts | 59° |
| 2026-04-21 09:03 | -16.46693 | -48.94356 | 21965 ft | 380 kts | 58° |
| 2026-04-21 09:03 | -16.45215 | -48.92083 | 21515 ft | 378 kts | 58° |
| 2026-04-21 09:03 | -16.43746 | -48.89825 | 21066 ft | 376 kts | 58° |
| 2026-04-21 09:03 | -16.42277 | -48.87568 | 20612 ft | 375 kts | 58° |
| 2026-04-21 09:04 | -16.40815 | -48.85326 | 20164 ft | 374 kts | 58° |
| 2026-04-21 09:04 | -16.39356 | -48.83093 | 19716 ft | 373 kts | 58° |
| 2026-04-21 09:04 | -16.37899 | -48.80863 | 19269 ft | 371 kts | 58° |
| 2026-04-21 09:04 | -16.36451 | -48.78647 | 18822 ft | 370 kts | 58° |
| 2026-04-21 09:05 | -16.35009 | -48.76447 | 18440 ft | 367 kts | 57° |
| 2026-04-21 09:05 | -16.33575 | -48.74258 | 18060 ft | 363 kts | 57° |
| 2026-04-21 09:05 | -16.32156 | -48.72086 | 17544 ft | 362 kts | 57° |
| 2026-04-21 09:05 | -16.30752 | -48.69934 | 17115 ft | 359 kts | 57° |
| 2026-04-21 09:06 | -16.29369 | -48.67818 | 16580 ft | 348 kts | 57° |
| 2026-04-21 09:06 | -16.28035 | -48.65780 | 16215 ft | 333 kts | 57° |
| 2026-04-21 09:06 | -16.26756 | -48.63823 | 15833 ft | 321 kts | 57° |
| 2026-04-21 09:06 | -16.25525 | -48.61937 | 15463 ft | 309 kts | 57° |
| 2026-04-21 09:07 | -16.24439 | -48.60058 | 15113 ft | 298 kts | 66° |
| 2026-04-21 09:07 | -16.23745 | -48.58057 | 14773 ft | 293 kts | 77° |
| 2026-04-21 09:07 | -16.23268 | -48.56000 | 14437 ft | 292 kts | 77° |
| 2026-04-21 09:07 | -16.22791 | -48.53953 | 14103 ft | 290 kts | 77° |
| 2026-04-21 09:08 | -16.22312 | -48.51918 | 13754 ft | 289 kts | 77° |
| 2026-04-21 09:08 | -16.21833 | -48.49896 | 13393 ft | 287 kts | 77° |
| 2026-04-21 09:08 | -16.21357 | -48.47892 | 13056 ft | 284 kts | 77° |
| 2026-04-21 09:08 | -16.20889 | -48.45927 | 12720 ft | 282 kts | 77° |
| 2026-04-21 09:09 | -16.20420 | -48.43952 | 12376 ft | 280 kts | 77° |
| 2026-04-21 09:09 | -16.19951 | -48.41992 | 12050 ft | 278 kts | 77° |
| 2026-04-21 09:09 | -16.19485 | -48.40047 | 11707 ft | 276 kts | 77° |
| 2026-04-21 09:09 | -16.19024 | -48.38117 | 11365 ft | 274 kts | 77° |
| 2026-04-21 09:10 | -16.18569 | -48.36204 | 11025 ft | 271 kts | 77° |
| 2026-04-21 09:10 | -16.18118 | -48.34311 | 10685 ft | 269 kts | 77° |
| 2026-04-21 09:10 | -16.17671 | -48.32430 | 10343 ft | 267 kts | 77° |
| 2026-04-21 09:10 | -16.17230 | -48.30565 | 10005 ft | 266 kts | 77° |
| 2026-04-21 09:11 | -16.16769 | -48.28607 | 9754 ft | 286 kts | 77° |
| 2026-04-21 09:11 | -16.16303 | -48.26622 | 9557 ft | 273 kts | 77° |
| 2026-04-21 09:11 | -16.15835 | -48.24781 | 9289 ft | 257 kts | 69° |
| 2026-04-21 09:11 | -16.14929 | -48.23222 | 8944 ft | 249 kts | 47° |
| 2026-04-21 09:12 | -16.13544 | -48.22130 | 8828 ft | 253 kts | 27° |
| 2026-04-21 09:12 | -16.11868 | -48.21567 | 8706 ft | 254 kts | 16° |
| 2026-04-21 09:12 | -16.10156 | -48.21127 | 8583 ft | 253 kts | 15° |
| 2026-04-21 09:12 | -16.08445 | -48.20690 | 8467 ft | 253 kts | 15° |
| 2026-04-21 09:13 | -16.06739 | -48.20256 | 8343 ft | 252 kts | 15° |
| 2026-04-21 09:13 | -16.05040 | -48.19824 | 8237 ft | 251 kts | 15° |
| 2026-04-21 09:13 | -16.03344 | -48.19391 | 8179 ft | 247 kts | 15° |
| 2026-04-21 09:13 | -16.01737 | -48.18982 | 8111 ft | 235 kts | 16° |
| 2026-04-21 09:14 | -16.00184 | -48.18585 | 8017 ft | 225 kts | 16° |
| 2026-04-21 09:14 | -15.98698 | -48.18208 | 7925 ft | 214 kts | 15° |
| 2026-04-21 09:14 | -15.97255 | -48.17874 | 7798 ft | 212 kts | 14° |
| 2026-04-21 09:14 | -15.95816 | -48.17556 | 7673 ft | 211 kts | 14° |
| 2026-04-21 09:15 | -15.94381 | -48.17240 | 7551 ft | 211 kts | 14° |
| 2026-04-21 09:15 | -15.92946 | -48.16924 | 7426 ft | 210 kts | 14° |
| 2026-04-21 09:15 | -15.91522 | -48.16580 | 7304 ft | 209 kts | 20° |
| 2026-04-21 09:15 | -15.90241 | -48.15967 | 7222 ft | 196 kts | 34° |
| 2026-04-21 09:16 | -15.89244 | -48.15148 | 7223 ft | 169 kts | 46° |
| 2026-04-21 09:16 | -15.88543 | -48.14277 | 7211 ft | 147 kts | 57° |
| 2026-04-21 09:16 | -15.88046 | -48.13362 | 7212 ft | 146 kts | 66° |
| 2026-04-21 09:16 | -15.87711 | -48.12373 | 7169 ft | 145 kts | 76° |
| 2026-04-21 09:17 | -15.87549 | -48.11339 | 7045 ft | 145 kts | 85° |
| 2026-04-21 09:17 | -15.87478 | -48.10296 | 6881 ft | 145 kts | 86° |
| 2026-04-21 09:17 | -15.87411 | -48.09253 | 6697 ft | 144 kts | 86° |
| 2026-04-21 09:17 | -15.87345 | -48.08214 | 6516 ft | 144 kts | 86° |
| 2026-04-21 09:18 | -15.87278 | -48.07179 | 6322 ft | 143 kts | 86° |
| 2026-04-21 09:18 | -15.87214 | -48.06150 | 6135 ft | 142 kts | 85° |
| 2026-04-21 09:18 | -15.87149 | -48.05124 | 5942 ft | 143 kts | 86° |
| 2026-04-21 09:18 | -15.87085 | -48.04113 | 5755 ft | 141 kts | 86° |
| 2026-04-21 09:19 | -15.87021 | -48.03099 | 5571 ft | 141 kts | 86° |
| 2026-04-21 09:19 | -15.86957 | -48.02089 | 5385 ft | 141 kts | 86° |
| 2026-04-21 09:19 | -15.86894 | -48.01078 | 5203 ft | 140 kts | 85° |
| 2026-04-21 09:19 | -15.86833 | -48.00073 | 5015 ft | 140 kts | 85° |
| 2026-04-21 09:20 | -15.86770 | -47.99072 | 4826 ft | 139 kts | 86° |
| 2026-04-21 09:20 | -15.86702 | -47.98070 | 4639 ft | 139 kts | 85° |
| 2026-04-21 09:20 | -15.86633 | -47.97067 | 4453 ft | 140 kts | 85° |
| 2026-04-21 09:20 | -15.86569 | -47.96056 | 4264 ft | 141 kts | 86° |
| 2026-04-21 09:21 | -15.86505 | -47.95031 | 4060 ft | 143 kts | 86° |
| 2026-04-21 09:21 | -15.86448 | -47.93999 | 3797 ft | 143 kts | 86° |
| 2026-04-21 09:21 | -15.86370 | -47.92962 | 3552 ft | 144 kts | 85° |
| 2026-04-21 09:21 | -15.86303 | -47.91979 | 3468 ft | 115 kts | 85° |
| 2026-04-21 09:22 | -15.86264 | -47.91438 | 3468 ft | 51 kts | 86° |
| 2026-04-21 09:22 | -15.86241 | -47.91120 | 3475 ft | 39 kts | 89° |
| 2026-04-21 09:22 | -15.86266 | -47.90852 | 3477 ft | 36 kts | 120° |
| 2026-04-21 09:22 | -15.86396 | -47.90698 | 3479 ft | 25 kts | 151° |
| 2026-04-21 09:23 | -15.86566 | -47.90660 | 3476 ft | 24 kts | 174° |
| 2026-04-21 09:23 | -15.86655 | -47.90722 | 3475 ft | 0 kts | 271° |